createdAt,value
2023-03-26T00:01:33.624Z,8.20
2023-03-26T00:04:01.250Z,8.20
2023-03-26T00:06:38.861Z,8.10
2023-03-26T00:09:10.869Z,8.20
2023-03-26T00:11:37.748Z,8.10
2023-03-26T00:14:05.386Z,8.10
2023-03-26T00:16:33.051Z,8.10
2023-03-26T00:19:01.261Z,8.10
2023-03-26T00:21:30.086Z,8.10
2023-03-26T00:23:59.727Z,8.10
2023-03-26T00:26:27.804Z,8.10
2023-03-26T00:28:54.482Z,8.10
2023-03-26T00:31:21.374Z,8.00
2023-03-26T00:33:48.038Z,8.10
2023-03-26T00:36:17.438Z,8.10
2023-03-26T00:38:46.815Z,8.20
2023-03-26T00:41:23.040Z,7.90
2023-03-26T00:43:53.326Z,8.10
2023-03-26T00:46:20.248Z,8.10
2023-03-26T00:48:47.436Z,8.10
2023-03-26T00:51:16.274Z,8.10
2023-03-26T00:53:45.629Z,8.10
2023-03-26T00:56:12.541Z,8.10
2023-03-26T00:58:39.618Z,8.10
2023-03-26T01:01:09.929Z,8.10
2023-03-26T01:03:38.766Z,8.00
2023-03-26T01:06:08.980Z,8.00
2023-03-26T01:08:41.436Z,8.10
2023-03-26T01:11:20.603Z,8.00
2023-03-26T01:13:56.806Z,7.90
2023-03-26T01:16:26.412Z,8.00
2023-03-26T01:18:53.828Z,8.10
2023-03-26T01:21:28.467Z,8.10
2023-03-26T01:24:05.134Z,7.80
2023-03-26T01:26:41.032Z,8.10
2023-03-26T01:29:18.691Z,8.00
2023-03-26T01:32:20.630Z,7.90
2023-03-26T01:35:06.098Z,7.90
2023-03-26T01:38:17.782Z,7.80
2023-03-26T01:40:59.223Z,7.80
2023-03-26T01:43:32.359Z,7.80
2023-03-26T01:46:03.843Z,7.80
2023-03-26T01:48:39.369Z,7.80
2023-03-26T01:51:07.364Z,7.80
2023-03-26T01:53:37.661Z,7.70
2023-03-26T01:56:25.914Z,7.70
2023-03-26T01:59:26.221Z,7.70
2023-03-26T02:02:14.503Z,7.70
2023-03-26T02:04:53.022Z,7.70
2023-03-26T02:07:29.387Z,7.70
2023-03-26T02:10:02.055Z,7.70
2023-03-26T02:12:30.178Z,7.70
2023-03-26T02:15:00.153Z,7.70
2023-03-26T02:17:32.562Z,7.70
2023-03-26T02:19:59.296Z,7.70
2023-03-26T02:22:29.753Z,7.70
2023-03-26T02:24:56.378Z,7.60
2023-03-26T02:27:23.048Z,7.60
2023-03-26T02:29:50.289Z,7.50
2023-03-26T02:32:19.236Z,7.40
2023-03-26T02:34:45.878Z,7.40
2023-03-26T02:37:12.421Z,7.40
2023-03-26T02:39:38.992Z,7.40
2023-03-26T02:42:05.731Z,7.40
2023-03-26T02:44:32.286Z,7.30
2023-03-26T02:46:58.892Z,7.30
2023-03-26T02:49:26.025Z,7.20
2023-03-26T02:51:56.151Z,7.30
2023-03-26T02:54:23.501Z,7.30
2023-03-26T02:56:50.286Z,7.30
2023-03-26T02:59:16.912Z,7.30
2023-03-26T03:01:43.615Z,7.30
2023-03-26T03:04:11.474Z,7.30
2023-03-26T03:06:39.090Z,7.40
2023-03-26T03:09:06.877Z,7.40
2023-03-26T03:11:33.522Z,7.40
2023-03-26T03:14:00.421Z,7.40
2023-03-26T03:16:27.420Z,7.40
2023-03-26T03:18:57.419Z,7.40
2023-03-26T03:21:29.039Z,7.30
2023-03-26T03:24:00.261Z,7.50
2023-03-26T03:26:27.729Z,7.50
2023-03-26T03:28:56.421Z,7.40
2023-03-26T03:31:24.709Z,7.50
2023-03-26T03:33:51.868Z,6.20
2023-03-26T03:36:23.810Z,7.50
2023-03-26T03:38:51.133Z,7.60
2023-03-26T03:41:18.530Z,7.60
2023-03-26T03:43:45.602Z,7.60
2023-03-26T03:46:12.236Z,7.60
2023-03-26T03:48:39.136Z,9.30
2023-03-26T03:51:06.341Z,7.60
2023-03-26T03:53:37.111Z,7.60
2023-03-26T03:56:04.608Z,7.60
2023-03-26T03:58:31.342Z,7.60
2023-03-26T04:01:03.088Z,7.60
2023-03-26T04:03:34.144Z,7.60
2023-03-26T04:06:01.457Z,7.60
2023-03-26T04:08:28.085Z,7.60
2023-03-26T04:10:54.808Z,7.60
2023-03-26T04:13:21.513Z,7.60
2023-03-26T04:15:48.196Z,7.60
2023-03-26T04:18:14.834Z,7.50
2023-03-26T04:20:46.334Z,7.60
2023-03-26T04:23:14.356Z,7.50
2023-03-26T04:25:43.737Z,7.50
2023-03-26T04:28:15.684Z,7.50
2023-03-26T04:30:45.016Z,7.50
2023-03-26T04:33:15.562Z,7.60
2023-03-26T04:35:44.567Z,7.50
2023-03-26T04:38:11.792Z,7.60
2023-03-26T04:40:42.328Z,7.60
2023-03-26T04:43:17.957Z,7.60
2023-03-26T04:45:48.084Z,7.60
2023-03-26T04:48:14.692Z,7.60
2023-03-26T04:50:45.715Z,7.60
2023-03-26T04:53:15.994Z,7.50
2023-03-26T04:55:56.145Z,7.50
2023-03-26T04:58:32.772Z,7.50
2023-03-26T05:01:01.889Z,7.50
2023-03-26T05:03:41.081Z,7.50
2023-03-26T05:06:10.541Z,7.50
2023-03-26T05:08:37.217Z,7.70
2023-03-26T05:11:07.408Z,7.50
2023-03-26T05:13:33.984Z,7.50
2023-03-26T05:16:00.649Z,7.50
2023-03-26T05:18:27.284Z,7.40
2023-03-26T05:20:54.127Z,7.50
2023-03-26T05:23:20.843Z,7.60
2023-03-26T05:25:47.521Z,7.50
2023-03-26T05:28:14.176Z,7.50
2023-03-26T05:30:43.420Z,7.50
2023-03-26T05:33:10.364Z,7.50
2023-03-26T05:35:37.355Z,7.50
2023-03-26T05:38:03.957Z,7.50
2023-03-26T05:40:30.571Z,7.50
2023-03-26T05:42:57.137Z,7.60
2023-03-26T05:45:23.896Z,7.60
2023-03-26T05:47:54.094Z,7.60
2023-03-26T05:50:21.041Z,7.50
2023-03-26T05:52:47.799Z,7.60
2023-03-26T05:55:14.624Z,7.60
2023-03-26T05:57:42.573Z,7.60
2023-03-26T06:00:11.526Z,7.60
2023-03-26T06:03:09.769Z,7.60
2023-03-26T06:05:38.953Z,7.50
2023-03-26T06:08:06.760Z,7.50
2023-03-26T06:10:33.345Z,7.40
2023-03-26T06:12:59.929Z,7.40
2023-03-26T06:15:26.543Z,7.40
2023-03-26T06:17:53.187Z,7.20
2023-03-26T06:20:19.887Z,7.00
2023-03-26T06:22:46.531Z,7.00
2023-03-26T06:25:13.097Z,7.00
2023-03-26T06:27:39.712Z,7.00
2023-03-26T06:30:06.981Z,6.90
2023-03-26T06:32:33.634Z,6.90
2023-03-26T06:35:00.230Z,6.90
2023-03-26T06:37:26.790Z,6.90
2023-03-26T06:39:53.414Z,7.00
2023-03-26T06:42:20.331Z,7.70
2023-03-26T06:44:46.920Z,7.00
2023-03-26T06:47:13.447Z,7.00
2023-03-26T06:49:42.718Z,7.10
2023-03-26T06:52:10.903Z,7.10
2023-03-26T06:54:37.506Z,7.00
2023-03-26T06:57:04.352Z,7.10
2023-03-26T06:59:31.005Z,7.20
2023-03-26T07:01:57.600Z,7.00
2023-03-26T07:04:24.216Z,7.30
2023-03-26T07:06:50.967Z,7.40
2023-03-26T07:09:17.777Z,7.50
2023-03-26T07:11:44.329Z,7.90
2023-03-26T07:14:10.905Z,8.00
2023-03-26T07:16:37.483Z,8.00
2023-03-26T07:19:04.260Z,8.10
2023-03-26T07:21:31.105Z,8.20
2023-03-26T07:23:58.077Z,8.10
2023-03-26T07:26:44.700Z,8.10
2023-03-26T07:29:28.715Z,8.30
2023-03-26T07:32:06.249Z,8.40
2023-03-26T07:35:03.029Z,8.40
2023-03-26T07:37:52.702Z,8.40
2023-03-26T07:40:53.159Z,8.50
2023-03-26T07:43:44.035Z,8.70
2023-03-26T07:46:12.320Z,8.60
2023-03-26T07:48:48.466Z,8.50
2023-03-26T07:51:16.117Z,8.40
2023-03-26T07:53:42.800Z,8.50
2023-03-26T07:56:29.230Z,8.40
2023-03-26T07:59:04.560Z,8.30
2023-03-26T08:02:03.012Z,8.20
2023-03-26T08:05:10.382Z,8.20
2023-03-26T08:08:07.766Z,8.20
2023-03-26T08:11:13.492Z,8.20
2023-03-26T08:14:02.893Z,8.20
2023-03-26T08:16:47.976Z,8.10
2023-03-26T08:19:38.576Z,8.10
2023-03-26T08:22:31.397Z,8.10
2023-03-26T08:24:59.272Z,8.20
2023-03-26T08:27:39.944Z,8.20
2023-03-26T08:30:22.857Z,8.40
2023-03-26T08:32:56.282Z,8.50
2023-03-26T08:35:24.470Z,8.50
2023-03-26T08:37:51.858Z,8.70
2023-03-26T08:40:38.665Z,8.60
2023-03-26T08:43:45.513Z,8.70
2023-03-26T08:46:46.373Z,8.60
2023-03-26T08:49:33.543Z,8.70
2023-03-26T08:52:33.961Z,8.50
2023-03-26T08:55:30.205Z,8.70
2023-03-26T08:58:09.282Z,8.50
2023-03-26T09:00:57.007Z,8.40
2023-03-26T09:03:47.105Z,8.30
2023-03-26T09:06:41.780Z,8.30
2023-03-26T09:09:50.190Z,8.20
2023-03-26T09:13:03.722Z,8.20
2023-03-26T09:16:18.136Z,8.10
2023-03-26T09:19:03.874Z,8.10
2023-03-26T09:21:59.537Z,8.10
2023-03-26T09:24:47.932Z,8.20
2023-03-26T09:27:36.423Z,8.30
2023-03-26T09:30:46.952Z,8.40
2023-03-26T09:33:46.989Z,8.40
2023-03-26T09:36:39.023Z,8.40
2023-03-26T09:39:16.461Z,8.30
2023-03-26T09:42:08.024Z,8.20
2023-03-26T09:45:12.244Z,8.00
2023-03-26T09:47:58.115Z,8.00
2023-03-26T09:50:43.522Z,7.90
2023-03-26T09:53:39.661Z,7.80
2023-03-26T09:56:43.996Z,7.70
2023-03-26T09:59:38.865Z,7.70
2023-03-26T10:02:46.718Z,7.80
2023-03-26T10:05:34.168Z,7.70
2023-03-26T10:08:32.855Z,7.80
2023-03-26T10:11:21.926Z,7.80
2023-03-26T10:14:00.321Z,7.80
2023-03-26T10:17:05.484Z,7.70
2023-03-26T10:19:48.979Z,7.70
2023-03-26T10:22:40.510Z,7.90
2023-03-26T10:25:40.917Z,8.10
2023-03-26T10:28:21.208Z,8.20
2023-03-26T10:31:06.600Z,7.20
2023-03-26T10:34:06.299Z,8.50
2023-03-26T10:36:36.641Z,8.60
2023-03-26T10:39:36.887Z,8.60
2023-03-26T10:42:42.121Z,9.10
2023-03-26T10:45:35.692Z,8.60
2023-03-26T10:48:42.559Z,8.40
2023-03-26T10:51:25.644Z,8.30
2023-03-26T10:53:57.933Z,8.40
2023-03-26T10:56:40.749Z,8.20
2023-03-26T10:59:11.957Z,8.20
2023-03-26T11:02:15.556Z,8.20
2023-03-26T11:04:59.605Z,8.30
2023-03-26T11:07:42.771Z,8.50
2023-03-26T11:10:16.949Z,8.80
2023-03-26T11:12:55.230Z,9.00
2023-03-26T11:15:50.705Z,8.90
2023-03-26T11:18:44.408Z,9.00
2023-03-26T11:21:24.173Z,9.30
2023-03-26T11:24:09.239Z,9.60
2023-03-26T11:26:56.205Z,9.80
2023-03-26T11:29:37.905Z,10.10
2023-03-26T11:32:15.526Z,9.90
2023-03-26T11:35:00.868Z,9.70
2023-03-26T11:37:44.051Z,9.90
2023-03-26T11:40:20.151Z,9.30
2023-03-26T11:42:49.882Z,10.20
2023-03-26T11:45:24.082Z,9.90
2023-03-26T11:47:54.216Z,10.10
2023-03-26T11:50:30.605Z,10.20
2023-03-26T11:53:19.244Z,10.30
2023-03-26T11:56:04.192Z,10.60
2023-03-26T11:59:01.199Z,10.80
2023-03-26T12:01:40.256Z,10.90
2023-03-26T12:04:16.172Z,10.80
2023-03-26T12:06:57.724Z,10.90
2023-03-26T12:09:35.441Z,10.90
2023-03-26T12:12:04.539Z,10.90
2023-03-26T12:14:34.635Z,10.80
2023-03-26T12:17:12.744Z,10.40
2023-03-26T12:19:42.084Z,10.50
2023-03-26T12:22:33.266Z,11.60
2023-03-26T12:25:17.562Z,10.80
2023-03-26T12:28:02.664Z,10.80
2023-03-26T12:30:35.342Z,10.70
2023-03-26T12:33:05.685Z,10.80
2023-03-26T12:35:37.499Z,10.80
2023-03-26T12:38:35.551Z,11.00
2023-03-26T12:44:42.140Z,11.00
2023-03-26T12:44:51.244Z,11.00
2023-03-26T12:48:01.144Z,11.10
2023-03-26T12:50:17.561Z,11.10
2023-03-26T12:53:12.621Z,11.00
2023-03-26T12:56:00.569Z,11.00
2023-03-26T12:58:51.315Z,11.00
2023-03-26T13:01:28.528Z,11.00
2023-03-26T13:04:37.658Z,11.10
2023-03-26T13:07:30.651Z,11.20
2023-03-26T13:10:35.086Z,11.40
2023-03-26T13:13:21.805Z,11.50
2023-03-26T13:16:02.481Z,11.60
2023-03-26T13:18:50.114Z,11.60
2023-03-26T13:21:32.835Z,11.50
2023-03-26T13:24:43.117Z,11.60
2023-03-26T13:27:48.477Z,11.70
2023-03-26T13:30:25.558Z,11.60
2023-03-26T13:33:07.195Z,11.60
2023-03-26T13:35:46.261Z,11.50
2023-03-26T13:38:41.511Z,11.40
2023-03-26T13:41:38.500Z,11.20
2023-03-26T13:44:13.987Z,11.10
2023-03-26T13:46:52.469Z,11.10
2023-03-26T13:50:12.176Z,11.00
2023-03-26T13:52:52.196Z,11.10
2023-03-26T13:55:42.230Z,11.30
2023-03-26T13:58:27.008Z,11.30
2023-03-26T14:01:43.267Z,11.30
2023-03-26T14:04:33.725Z,11.30
2023-03-26T14:07:07.438Z,11.20
2023-03-26T14:09:51.584Z,11.60
2023-03-26T14:12:49.432Z,11.50
2023-03-26T14:15:44.642Z,11.80
2023-03-26T14:18:44.819Z,11.80
2023-03-26T14:24:58.974Z,11.80
2023-03-26T14:27:48.316Z,11.80
2023-03-26T14:31:08.073Z,11.60
2023-03-26T14:33:50.326Z,11.70
2023-03-26T14:36:33.275Z,11.60
2023-03-26T14:39:30.266Z,11.70
2023-03-26T14:42:02.229Z,11.70
2023-03-26T14:44:56.644Z,11.70
2023-03-26T14:47:26.760Z,11.60
2023-03-26T14:50:31.469Z,11.70
2023-03-26T14:53:04.304Z,11.70
2023-03-26T14:55:48.778Z,12.00
2023-03-26T14:59:01.594Z,12.10
2023-03-26T15:02:09.829Z,12.00
2023-03-26T15:05:07.092Z,11.80
2023-03-26T15:07:53.435Z,11.50
2023-03-26T15:10:26.043Z,11.70
2023-03-26T15:13:13.631Z,11.70
2023-03-26T15:16:11.560Z,11.60
2023-03-26T15:18:56.723Z,11.60
2023-03-26T15:21:29.268Z,11.60
2023-03-26T15:24:29.420Z,11.50
2023-03-26T15:27:42.396Z,11.60
2023-03-26T15:30:42.334Z,11.70
2023-03-26T15:33:35.016Z,11.80
2023-03-26T15:36:30.236Z,11.80
2023-03-26T15:39:38.036Z,11.70
2023-03-26T15:42:31.920Z,11.60
2023-03-26T15:45:31.922Z,11.70
2023-03-26T15:48:13.562Z,11.60
2023-03-26T15:51:15.311Z,11.50
2023-03-26T15:53:56.633Z,11.50
2023-03-26T15:56:52.978Z,11.50
2023-03-26T15:59:52.238Z,11.50
2023-03-26T16:02:58.291Z,11.40
2023-03-26T16:05:46.273Z,11.30
2023-03-26T16:08:39.683Z,11.20
2023-03-26T16:11:14.424Z,11.20
2023-03-26T16:14:08.330Z,11.10
2023-03-26T16:16:54.919Z,11.00
2023-03-26T16:19:36.535Z,10.90
2023-03-26T16:22:07.669Z,10.90
2023-03-26T16:24:37.731Z,10.80
2023-03-26T16:27:32.221Z,10.80
2023-03-26T16:30:06.977Z,10.70
2023-03-26T16:32:38.896Z,10.60
2023-03-26T16:35:14.531Z,10.60
2023-03-26T16:37:51.632Z,10.50
2023-03-26T16:40:22.188Z,10.50
2023-03-26T16:43:06.160Z,10.50
2023-03-26T16:45:46.989Z,10.40
2023-03-26T16:48:41.275Z,10.30
2023-03-26T16:51:53.434Z,10.20
2023-03-26T16:54:39.772Z,10.20
2023-03-26T16:57:27.911Z,10.10
2023-03-26T17:00:05.261Z,10.00
2023-03-26T17:02:41.763Z,9.90
2023-03-26T17:05:24.665Z,9.90
2023-03-26T17:08:14.396Z,9.80
2023-03-26T17:10:57.049Z,9.80
2023-03-26T17:13:36.803Z,9.70
2023-03-26T17:16:22.337Z,9.60
2023-03-26T17:19:29.751Z,9.50
2023-03-26T17:22:05.774Z,9.50
2023-03-26T17:25:04.354Z,9.40
2023-03-26T17:27:50.752Z,9.40
2023-03-26T17:30:45.375Z,9.30
2023-03-26T17:33:34.908Z,9.20
2023-03-26T17:36:21.352Z,9.20
2023-03-26T17:38:48.025Z,9.20
2023-03-26T17:41:55.413Z,9.00
2023-03-26T17:44:44.316Z,9.00
2023-03-26T17:47:27.249Z,9.00
2023-03-26T17:50:04.214Z,8.90
2023-03-26T17:52:53.838Z,8.80
2023-03-26T17:55:25.861Z,8.80
2023-03-26T17:57:56.991Z,8.80
2023-03-26T18:00:35.560Z,8.80
2023-03-26T18:03:14.341Z,8.70
2023-03-26T18:05:41.092Z,8.80
2023-03-26T18:08:22.738Z,9.10
2023-03-26T18:11:00.242Z,8.90
2023-03-26T18:14:04.097Z,9.00
2023-03-26T18:16:40.438Z,8.90
2023-03-26T18:19:19.100Z,8.90
2023-03-26T18:21:51.231Z,8.90
2023-03-26T18:24:30.268Z,9.00
2023-03-26T18:27:02.629Z,8.90
2023-03-26T18:29:31.549Z,8.90
2023-03-26T18:32:16.714Z,8.90
2023-03-26T18:34:53.923Z,8.90
2023-03-26T18:37:24.472Z,8.90
2023-03-26T18:40:09.862Z,8.90
2023-03-26T18:42:36.971Z,8.90
2023-03-26T18:45:09.421Z,8.90
2023-03-26T18:47:38.149Z,8.80
2023-03-26T18:50:05.429Z,8.70
2023-03-26T18:52:32.579Z,8.70
2023-03-26T18:55:01.798Z,8.50
2023-03-26T18:57:29.060Z,8.20
2023-03-26T19:00:08.853Z,8.40
2023-03-26T19:02:35.856Z,8.30
2023-03-26T19:05:02.904Z,8.20
2023-03-26T19:07:30.331Z,8.10
2023-03-26T19:10:00.283Z,8.00
2023-03-26T19:12:36.543Z,7.90
2023-03-26T19:15:09.922Z,7.90
2023-03-26T19:17:43.000Z,7.80
2023-03-26T19:20:24.564Z,7.80
2023-03-26T19:22:51.883Z,7.70
2023-03-26T19:25:23.139Z,7.70
2023-03-26T19:27:51.690Z,7.60
2023-03-26T19:30:33.405Z,7.60
2023-03-26T19:33:12.096Z,7.50
2023-03-26T19:35:42.187Z,7.50
2023-03-26T19:38:22.695Z,7.50
2023-03-26T19:40:52.432Z,7.40
2023-03-26T19:43:19.561Z,7.40
2023-03-26T19:46:00.165Z,7.30
2023-03-26T19:48:46.522Z,7.30
2023-03-26T19:51:20.460Z,7.30
2023-03-26T19:53:53.155Z,7.30
2023-03-26T19:56:21.300Z,7.20
2023-03-26T19:58:49.404Z,7.20
2023-03-26T20:01:22.691Z,7.30
2023-03-26T20:03:52.801Z,7.20
2023-03-26T20:06:30.905Z,7.10
2023-03-26T20:09:05.005Z,7.10
2023-03-26T20:11:36.433Z,7.00
2023-03-26T20:14:11.885Z,6.90
2023-03-26T20:16:39.759Z,6.90
2023-03-26T20:19:07.433Z,6.80
2023-03-26T20:21:38.021Z,6.70
2023-03-26T20:24:27.441Z,6.70
2023-03-26T20:26:54.106Z,6.40
2023-03-26T20:29:20.652Z,6.60
2023-03-26T20:31:49.260Z,6.60
2023-03-26T20:34:19.726Z,6.50
2023-03-26T20:36:47.017Z,6.50
2023-03-26T20:39:16.181Z,6.50
2023-03-26T20:41:48.389Z,6.40
2023-03-26T20:44:22.907Z,6.70
2023-03-26T20:46:50.487Z,6.40
2023-03-26T20:49:21.574Z,6.40
2023-03-26T20:51:48.987Z,6.30
2023-03-26T20:54:19.247Z,6.30
2023-03-26T20:56:47.612Z,6.30
2023-03-26T20:59:19.109Z,6.30
2023-03-26T21:01:49.813Z,6.40
2023-03-26T21:04:17.514Z,6.00
2023-03-26T21:06:44.631Z,6.40
2023-03-26T21:09:23.464Z,6.30
2023-03-26T21:12:00.586Z,6.30
2023-03-26T21:14:43.441Z,6.30
2023-03-26T21:17:16.510Z,6.30
2023-03-26T21:19:43.638Z,6.30
2023-03-26T21:22:37.390Z,6.30
2023-03-26T21:25:28.293Z,6.30
2023-03-26T21:28:01.732Z,6.30
2023-03-26T21:30:28.649Z,6.30
2023-03-26T21:32:55.303Z,6.20
2023-03-26T21:35:22.323Z,6.20
2023-03-26T21:37:49.344Z,6.20
2023-03-26T21:40:18.143Z,6.10
2023-03-26T21:42:50.503Z,6.10
2023-03-26T21:45:18.107Z,6.10
2023-03-26T21:47:46.319Z,6.10
2023-03-26T21:50:16.597Z,6.10
2023-03-26T21:52:49.354Z,6.00
2023-03-26T21:55:17.814Z,6.00
2023-03-26T21:58:09.974Z,5.90
2023-03-26T22:01:03.538Z,6.00
2023-03-26T22:03:37.415Z,5.90
2023-03-26T22:06:13.422Z,5.80
2023-03-26T22:08:42.014Z,5.80
2023-03-26T22:11:11.178Z,5.70
2023-03-26T22:13:38.746Z,5.70
2023-03-26T22:16:07.573Z,5.70
2023-03-26T22:18:34.631Z,5.60
2023-03-26T22:21:01.675Z,5.60
2023-03-26T22:23:34.213Z,5.50
2023-03-26T22:26:01.053Z,5.50
2023-03-26T22:28:27.698Z,5.50
2023-03-26T22:30:54.654Z,5.40
2023-03-26T22:33:21.486Z,5.40
2023-03-26T22:35:48.106Z,5.50
2023-03-26T22:38:14.931Z,5.30
2023-03-26T22:40:41.506Z,5.30
2023-03-26T22:43:09.003Z,5.30
2023-03-26T22:45:37.386Z,5.20
2023-03-26T22:48:04.599Z,5.20
2023-03-26T22:50:32.280Z,5.10
2023-03-26T22:52:58.907Z,5.10
2023-03-26T22:55:28.225Z,5.10
2023-03-26T22:57:55.662Z,5.10
2023-03-26T23:00:22.396Z,5.00
2023-03-26T23:02:49.103Z,5.00
2023-03-26T23:05:19.098Z,5.10
2023-03-26T23:07:46.173Z,5.00
2023-03-26T23:10:13.601Z,5.00
2023-03-26T23:12:40.314Z,4.90
2023-03-26T23:15:07.969Z,4.90
2023-03-26T23:17:36.018Z,4.90
2023-03-26T23:20:06.141Z,4.90
2023-03-26T23:22:35.192Z,4.90
2023-03-26T23:25:01.964Z,4.80
2023-03-26T23:27:28.706Z,4.80
2023-03-26T23:29:55.819Z,5.00
2023-03-26T23:32:25.265Z,4.70
2023-03-26T23:34:55.081Z,4.70
2023-03-26T23:37:23.806Z,4.70
2023-03-26T23:39:51.472Z,4.50
2023-03-26T23:42:29.059Z,4.60
2023-03-26T23:44:56.814Z,4.60
2023-03-26T23:47:23.754Z,4.60
2023-03-26T23:49:50.520Z,4.50
2023-03-26T23:52:17.096Z,4.20
2023-03-26T23:54:44.692Z,4.50
2023-03-26T23:57:11.522Z,4.40
2023-03-26T23:59:38.397Z,4.40
